默认 日期 大小 文件数 浏览量 最新下载 xml
broadcast磁力链接相关资源由用户搜索指令自动获取,结果来源于网络,本站不存储任何资料,亦不承担任何责任,请于24小时内删除,搜索到3881个磁力,用时5ms。
    ... .mov": 2336200}}, "Project": {"WoW Show (Broadcast Pack).aep": 7453529}, "Tutorial": {"Guide ...
创建时间: 2019-01-27 22:18:03 大小:387.42 MB 文件数量:2999 热度:12 最近下载:2025-03-31 04:02:02
    {"2sX37.jpg": 61242, "17. Frezel - How I Feel.mp3": 16351051, "19. Dave Neven - Oubliette.mp3": 17270567, "13. Ilan Bluestone - Elevate.mp3": 17150423, "06. Harry Square - Dreamworld.mp3": 15164059, "03. Arkham Knights - Awakening.mp3": 19090787, "15. ...
创建时间: 2019-01-27 23:03:51 大小:335.01 MB 文件数量:22 热度:5 最近下载:2022-11-12 09:39:04
    {"cover.jpg": 63417, "6 Girl.flac": 23083199, "auCDtect.txt": 3277, "10 Jewel.flac": 46396644, "13 Jewel.flac": 54339101, "4 Debora.flac": 31436178, "8 Hot Love.flac": 21334879, "9 Get it on.flac": 49667249, "14 Honey Don't.flac": 20962121, "2 Beltane Walk ...
创建时间: 2019-01-27 23:12:46 大小:605.52 MB 文件数量:20 热度:9 最近下载:2025-10-11 06:27:02
    ... Intuition Summer Festival 2009 - Live Broadcast (2009-08-08).mp3": ... Intuition Summer Festival 2009 - Live Broadcast (2009-08-08).mp3": ... Summer Festival 2009 - Live Broadcast (2009-08-08).mp3": ... Summer Festival 2009 - Live Broadcast (2009-08-08).mp3": ...
创建时间: 2019-01-28 00:37:44 大小:647.8 MB 文件数量:7 热度:12 最近下载:2022-11-12 12:45:50
    {"Disc One": {"Roxy Music - First Kiss - 08 - 2HB.mp3": 10649599, "Roxy Music - First Kiss - 10 - Ladytron.mp3": 15722578, "Roxy Music - First Kiss - 09 - Bitter End.mp3": 6143999, "Roxy Music - First Kiss - 04 - Sea Breezes.mp3": 19976358, "Roxy Music - ...
创建时间: 2019-01-28 00:50:52 大小:297.54 MB 文件数量:29 热度:10 最近下载:2025-02-25 01:44:04
    ... 04 Bone China (Live Radio Broadcast).mp3": 9136580, "05 Heartshine ... (Live Radio Broadcast).mp3": 13016286, "10 Holy ... Of Thorns (Live Radio Broadcast).mp3": 14814561, "07 ... Stardog Champion (Live Radio Broadcast).mp3": 11993337, "03 This ...
创建时间: 2019-01-28 03:02:00 大小:107.62 MB 文件数量:11 热度:7 最近下载:2022-11-15 20:22:34
    {"Cover.jpg": 53282, "17. Bobina - Sierra (Extended Mix).mp3": 12360688, "05. Solid Stone - 606 (Original Mix).mp3": 14776476, "01. Novaspace - Cygnus (Original Mix).mp3": 16644770, "07. Moonbeam - Skyfall (Original Mix).mp3": 15301016, "15. Davey Asprey - ...
创建时间: 2019-01-28 04:34:04 大小:347.62 MB 文件数量:22 热度:5 最近下载:2022-11-15 20:41:45
    {"BIG_JOE_.TXT": 726, "FINGERPR.TXT": 1150, "PLEASE_C.TXT": 76, "QUALITYB.URL": 2911, "2.7. Caravan.flac": 17425276, "1.5. Stardust.flac": 27197893, "2.1. DJ Intro.flac": 21002991, "1.1. DJ Intros.flac": 65889886, "1.10. Honeyhush.flac": 20561191, "1.9. ...
创建时间: 2019-01-28 06:18:08 大小:510.89 MB 文件数量:27 热度:6 最近下载:2022-11-12 10:42:31
    ... Video+mp3 LIVE 3-hr Broadcast.txt": 1212}
创建时间: 2019-01-28 15:02:01 大小:1.37 GB 文件数量:10 热度:8 最近下载:2025-02-16 08:56:02
    {"dirlist.txt": 1554, "Compact Mobile Videos": {"1of3 2014-12-06 Phoenix AZ CMV.mp4": 162838334, "2of3 2014-12-06 Phoenix AZ CMV.mp4": 158604148, "3of3 2014-12-06 Phoenix AZ CMV.mp4": 166628141}, "Links_to_ALL_Torrents.html": 96626, "1of3 2014-12-06 ...
创建时间: 2019-01-28 19:44:37 大小:1.45 GB 文件数量:10 热度:8 最近下载:2025-02-17 06:06:05
    ... Video+mp3 LIVE 3-hr Broadcast.txt": 1218}
创建时间: 2019-01-28 20:36:32 大小:1.33 GB 文件数量:10 热度:7 最近下载:2025-03-22 09:45:02
    {"Tutorial_PART2.mp4": 69617810, "Tutorial_ PART1.mp4": 115638743, "News Package_editable version": {"(Footage)": {"Virtual Studio Set": {"Camera1": {"desk": {"Desk Mattes": {"desk matte1_0000.png": 7483, "desk matte2_0000.png": 7698}, "desk_0000.png": ...
创建时间: 2019-01-28 21:35:01 大小:615.69 MB 文件数量:427 热度:6 最近下载:2025-03-27 04:01:52
    {"Cover.jpg": 32659, "01.Markus Schulz - Global DJ Broadcast (Two Hour Studio Mix).mp3": 288600395}
创建时间: 2019-01-28 21:44:32 大小:275.26 MB 文件数量:2 热度:7 最近下载:2022-11-12 10:55:10
    {"07-mr_pit-the_cube[pctrecords.com].mp3": 17037235, "01-r.e.n.o.i.s.e-dead_wishes[pctrecords.com].mp3": 17708060, "02-dakota-chinook__uplifting_mix[pctrecords.com].mp3": 22064239, "09-arpi-into_the_abyss__club_mix[pctrecords.com].mp3": 18530394, "05- ...
创建时间: 2019-01-29 04:16:52 大小:283.15 MB 文件数量:15 热度:6 最近下载:2022-11-15 20:17:54
    {"Open Broadcast Software v0_592b": {"Readme.txt": 984, "OBS_0_592b_Installer.exe": 7660927}}
创建时间: 2019-01-29 17:49:57 大小:7.31 MB 文件数量:2 热度:5 最近下载:2022-11-12 09:48:11
    {"www.Torrentday.com.txt": 580, "First Read This Guide.txt": 580, "Bobs.Burgers.S03E12.Broadcast.Wagstaff.School.News.480p.WEB-DL.x264-mSD.mkv": 89156594, "Bobs.Burgers.S03E12.Broadcast.Wagstaff.School.News.480p.WEB-DL.x264-mSD.nfo": 1215}
创建时间: 2019-01-29 18:46:40 大小:85.03 MB 文件数量:4 热度:5 最近下载:2022-11-12 10:02:31
    {"072. Imany - Lately.mp3": 9349490, "041. TLC - No Scrubs.mp3": 8846769, "098. Ridsa - Avancer.mp3": 8775718, "141. TLC - No Scrubs.mp3": 8818709, "078. Keen' V - Elle A.mp3": 7600502, "090. Joe - Ride Wit U.mp3": 8424634, "095. Ideal - Whatever.mp3": ...
创建时间: 2019-01-29 19:48:44 大小:1.33 GB 文件数量:160 热度:5 最近下载:2022-11-15 18:56:37
    ... .txt": 56, "Titler Live 4 Broadcast 4.0 Build 180735 With ... .exe": 15629310, "Titler Live 4 Broadcast 4.0 Build 180735 With ...
创建时间: 2019-01-29 21:59:28 大小:15.16 MB 文件数量:6 热度:5 最近下载:2022-11-12 10:29:47
    {"Version 01": {"(Footage)": {"Elements": {"Prog Footage.jpg": 399996, "1st Prog Footage.jpg": 409784, "2nd Prog Footage.jpg": 412030, "3rd Prog Footage.jpg": 411014, "Next Prog Footage.jpg": 416130, "Later Prog Footage.jpg": 416139}, "Channel Logo": {"MP ...
创建时间: 2019-01-29 22:03:09 大小:93.74 MB 文件数量:43 热度:6 最近下载:2022-11-15 19:35:46
    {"crack": {"run_52ded.exe": 80866}, "NewBlueFX Titler Live 4 Broadcast 4.0.181019.Crack.exe": 934854658, "NewBlueFX Titler Live 4 Broadcast 4.0.181019.Crack.nfo": 632}
创建时间: 2019-01-30 00:05:15 大小:891.62 MB 文件数量:3 热度:6 最近下载:2025-04-16 12:55:03